Time;durP1;ratioP1;P1;durP2;ratioP2;P2;SDS_P1;SDS_P2;PMS_P1;PMS_P2;Temp;Humidity;BMP_temperature;BMP_pressure;BME280_temperature;BME280_humidity;BME280_pressure;Samples;Min_cycle;Max_cycle;Signal;HPM_P1;HPM_P2
2023/05/19 00:01:52;;;;;;;11.87;7.97;;;14.30;95.90;;;;;;6301110;28;20488;-67
2023/05/19 00:04:55;;;;;;;8.00;7.30;;;14.30;95.70;;;;;;6301696;28;20477;-67
2023/05/19 00:08:00;;;;;;;12.20;7.53;;;14.30;95.70;;;;;;6301108;28;20491;-68
2023/05/19 00:11:04;;;;;;;15.73;7.07;;;14.30;95.70;;;;;;6300885;28;20567;-68
2023/05/19 00:14:10;;;;;;;10.13;7.93;;;14.30;95.70;;;;;;6301134;28;20473;-68
2023/05/19 00:17:15;;;;;;;10.50;6.93;;;14.30;95.70;;;;;;6300843;28;20548;-68
2023/05/19 00:20:19;;;;;;;12.20;8.30;;;14.30;95.70;;;;;;6301133;28;20463;-67
2023/05/19 00:23:22;;;;;;;9.17;7.40;;;14.30;95.60;;;;;;6300727;28;20911;-68
2023/05/19 00:26:26;;;;;;;12.17;7.60;;;14.30;95.80;;;;;;6300946;28;20441;-68
2023/05/19 00:29:30;;;;;;;9.30;8.50;;;14.30;96.00;;;;;;6299544;28;20464;-65
2023/05/19 00:32:34;;;;;;;7.97;7.17;;;14.30;96.30;;;;;;6300857;28;20541;-65
2023/05/19 00:35:39;;;;;;;11.90;8.50;;;14.30;96.50;;;;;;6300893;28;20476;-65
2023/05/19 00:38:42;;;;;;;7.73;6.93;;;14.20;96.50;;;;;;6300088;28;20465;-65
2023/05/19 00:41:48;;;;;;;8.80;8.00;;;14.20;96.70;;;;;;6300205;28;20480;-64
2023/05/19 00:44:51;;;;;;;10.37;7.73;;;14.20;96.80;;;;;;6300903;28;20929;-64
2023/05/19 00:47:56;;;;;;;12.73;7.80;;;14.20;97.00;;;;;;6300756;28;20465;-64
2023/05/19 00:51:03;;;;;;;8.67;7.60;;;14.20;97.20;;;;;;6299942;28;20556;-64
2023/05/19 00:54:06;;;;;;;9.93;7.70;;;14.20;97.30;;;;;;6299940;28;20996;-64
2023/05/19 00:57:10;;;;;;;8.30;7.50;;;14.10;97.50;;;;;;6295598;28;20476;-66
2023/05/19 01:00:15;;;;;;;9.20;7.77;;;14.10;97.60;;;;;;6300517;28;20469;-65
2023/05/19 01:03:20;;;;;;;9.20;7.57;;;14.10;97.70;;;;;;6300739;28;20544;-66
2023/05/19 01:06:24;;;;;;;10.33;8.07;;;14.10;97.70;;;;;;6300644;28;20480;-66
2023/05/19 01:09:27;;;;;;;9.47;7.97;;;14.10;97.60;;;;;;6300090;28;20969;-65
2023/05/19 01:12:30;;;;;;;10.30;7.67;;;14.10;97.50;;;;;;6300531;28;20480;-65
2023/05/19 01:15:51;;;;;;;8.73;7.73;;;14.10;97.60;;;;;;6300399;28;20943;-66
2023/05/19 01:19:02;;;;;;;9.73;8.00;;;14.10;97.80;;;;;;6300053;28;20590;-66
2023/05/19 01:22:27;;;;;;;9.87;7.90;;;14.10;98.00;;;;;;6300074;28;20476;-66
2023/05/19 01:26:12;;;;;;;9.97;7.40;;;14.10;98.20;;;;;;6299638;28;20969;-65
2023/05/19 01:29:41;;;;;;;10.07;8.70;;;14.10;97.80;;;;;;6299258;28;20778;-65
2023/05/19 01:32:47;;;;;;;9.63;7.47;;;14.10;97.80;;;;;;6299642;28;20469;-65
2023/05/19 01:35:51;;;;;;;9.13;8.20;;;14.10;97.70;;;;;;6299340;28;20489;-64
2023/05/19 01:38:58;;;;;;;8.80;7.97;;;14.00;97.70;;;;;;6299626;28;20479;-65
2023/05/19 01:42:02;;;;;;;10.30;7.80;;;14.00;97.70;;;;;;6299527;28;20488;-65
2023/05/19 01:45:09;;;;;;;10.70;7.70;;;13.90;97.80;;;;;;6299639;28;20468;-65
2023/05/19 01:48:14;;;;;;;10.60;8.80;;;13.80;97.90;;;;;;6304998;28;20472;-64
2023/05/19 01:51:18;;;;;;;8.73;7.03;;;13.70;98.10;;;;;;6308502;28;20473;-64
2023/05/19 01:54:21;;;;;;;10.13;8.33;;;13.70;98.10;;;;;;6300243;28;20479;-64
2023/05/19 01:57:29;;;;;;;14.00;8.57;;;13.70;98.20;;;;;;6299610;28;20461;-64
2023/05/19 02:00:42;;;;;;;10.17;8.50;;;13.60;98.20;;;;;;6299076;28;20470;-64
2023/05/19 02:04:11;;;;;;;10.20;9.20;;;13.50;98.30;;;;;;6299569;28;20461;-65
2023/05/19 02:07:25;;;;;;;8.83;7.97;;;13.40;98.50;;;;;;6298853;28;20465;-65
2023/05/19 02:10:30;;;;;;;13.73;9.30;;;13.40;98.70;;;;;;6298973;28;20906;-65
2023/05/19 02:13:37;;;;;;;9.83;8.93;;;13.30;98.70;;;;;;6302724;28;20522;-65
2023/05/19 02:16:45;;;;;;;9.83;8.30;;;13.30;98.80;;;;;;6304334;28;20960;-65
2023/05/19 02:19:51;;;;;;;10.80;9.70;;;13.30;98.90;;;;;;6301977;28;20478;-65
2023/05/19 02:22:54;;;;;;;10.13;9.23;;;13.40;98.90;;;;;;6299207;28;20614;-65
2023/05/19 02:25:57;;;;;;;10.83;8.60;;;13.40;98.90;;;;;;6298968;28;20473;-65
2023/05/19 02:29:00;;;;;;;14.23;8.87;;;13.40;99.20;;;;;;6298842;28;20484;-64
2023/05/19 02:32:03;;;;;;;10.23;8.47;;;13.40;98.90;;;;;;6298919;28;20991;-64
2023/05/19 02:35:09;;;;;;;12.93;7.23;;;13.30;99.00;;;;;;6298810;28;20538;-64
2023/05/19 02:38:12;;;;;;;13.97;8.17;;;13.30;99.00;;;;;;6298186;28;20939;-65
2023/05/19 02:41:15;;;;;;;15.80;9.77;;;13.30;99.00;;;;;;6298374;28;20485;-65
2023/05/19 02:44:18;;;;;;;9.83;8.93;;;13.40;99.10;;;;;;6299095;28;20535;-64
2023/05/19 02:47:22;;;;;;;9.87;8.90;;;13.40;98.90;;;;;;6299004;28;20474;-64
2023/05/19 02:50:26;;;;;;;12.17;9.53;;;13.30;98.70;;;;;;6298541;28;20476;-64
2023/05/19 02:53:30;;;;;;;9.70;8.20;;;13.30;98.80;;;;;;6302565;28;20459;-64
2023/05/19 02:56:33;;;;;;;11.00;9.77;;;13.30;98.90;;;;;;6303182;28;20457;-64
2023/05/19 02:59:37;;;;;;;10.97;8.33;;;13.30;98.90;;;;;;6302551;28;20484;-65
2023/05/19 03:02:42;;;;;;;15.03;9.23;;;13.30;99.00;;;;;;6302764;28;20485;-65
2023/05/19 03:05:47;;;;;;;12.63;9.10;;;13.30;99.10;;;;;;6293534;28;20457;-65
2023/05/19 03:08:50;;;;;;;12.83;8.73;;;13.30;99.10;;;;;;6302462;28;20808;-64
2023/05/19 03:11:54;;;;;;;9.40;8.40;;;13.30;99.40;;;;;;6302540;28;20471;-65
2023/05/19 03:14:57;;;;;;;13.20;10.00;;;13.20;99.40;;;;;;6302736;28;20480;-64
2023/05/19 03:18:00;;;;;;;11.13;8.17;;;13.30;99.50;;;;;;6302650;28;20465;-64
2023/05/19 03:21:05;;;;;;;9.93;8.90;;;13.30;99.60;;;;;;6302798;28;20465;-64
2023/05/19 03:24:08;;;;;;;9.30;8.33;;;13.40;99.70;;;;;;6302404;28;20466;-64
2023/05/19 03:27:12;;;;;;;10.40;8.97;;;13.30;99.70;;;;;;6302256;28;20469;-64
2023/05/19 03:30:15;;;;;;;12.47;8.70;;;13.30;99.70;;;;;;6302273;28;20495;-64
2023/05/19 03:33:18;;;;;;;13.90;9.00;;;13.40;99.90;;;;;;6302164;28;20817;-64
2023/05/19 03:36:23;;;;;;;13.20;9.40;;;13.40;99.90;;;;;;6302400;28;20469;-64
2023/05/19 03:39:26;;;;;;;11.87;9.33;;;13.40;99.90;;;;;;6302128;28;20813;-64
2023/05/19 03:42:29;;;;;;;10.77;9.20;;;13.50;99.90;;;;;;6302259;28;20473;-64
2023/05/19 03:45:33;;;;;;;10.00;9.10;;;13.50;99.90;;;;;;6302537;28;20944;-64
2023/05/19 03:48:36;;;;;;;10.90;9.90;;;13.50;99.90;;;;;;6302174;28;20465;-65
2023/05/19 03:51:41;;;;;;;11.17;8.70;;;13.50;99.90;;;;;;6302219;28;20473;-64
2023/05/19 03:54:45;;;;;;;11.47;9.73;;;13.50;99.90;;;;;;6301902;28;20982;-64
2023/05/19 03:57:48;;;;;;;10.47;9.47;;;13.40;99.90;;;;;;6301427;28;20774;-64
2023/05/19 04:00:51;;;;;;;11.07;9.33;;;13.40;99.90;;;;;;6301064;28;20469;-64
2023/05/19 04:03:54;;;;;;;9.93;8.80;;;13.40;99.90;;;;;;6301300;28;20465;-64
2023/05/19 04:07:00;;;;;;;13.47;9.57;;;13.50;99.90;;;;;;6302118;28;20489;-64
2023/05/19 04:10:05;;;;;;;9.90;8.83;;;13.50;99.90;;;;;;6307522;28;20473;-64
2023/05/19 04:13:08;;;;;;;8.93;8.13;;;13.40;99.90;;;;;;6303185;28;20564;-64
2023/05/19 04:16:11;;;;;;;9.90;8.90;;;13.40;99.90;;;;;;6301157;28;20465;-65
2023/05/19 04:19:14;;;;;;;10.37;9.10;;;13.40;99.90;;;;;;6300806;28;20473;-64
2023/05/19 04:22:19;;;;;;;12.00;10.67;;;13.50;99.90;;;;;;6300869;28;20461;-64
2023/05/19 04:25:23;;;;;;;10.70;9.50;;;13.50;99.90;;;;;;6300789;28;20949;-64
2023/05/19 04:28:27;;;;;;;13.50;9.73;;;13.50;99.90;;;;;;6300484;28;20530;-64
2023/05/19 04:31:30;;;;;;;14.70;10.90;;;13.50;99.90;;;;;;6300729;28;20554;-65
2023/05/19 04:34:34;;;;;;;12.93;9.50;;;13.40;99.90;;;;;;6300610;28;20964;-65
2023/05/19 04:37:39;;;;;;;11.30;9.30;;;13.50;99.90;;;;;;6300304;28;20465;-65
2023/05/19 04:40:42;;;;;;;10.93;9.23;;;13.50;99.90;;;;;;6300467;28;20812;-65
2023/05/19 04:43:47;;;;;;;11.97;9.23;;;13.60;99.90;;;;;;6300462;28;20479;-64
2023/05/19 04:46:53;;;;;;;11.70;10.30;;;13.60;99.90;;;;;;6300254;28;20499;-64
2023/05/19 04:49:56;;;;;;;14.13;10.03;;;13.70;99.90;;;;;;6300295;28;20465;-64
2023/05/19 04:53:01;;;;;;;15.10;10.10;;;13.70;99.90;;;;;;6300005;28;20786;-64
2023/05/19 04:56:04;;;;;;;12.07;9.60;;;13.70;99.90;;;;;;6300038;28;20474;-64
2023/05/19 04:59:08;;;;;;;11.57;9.30;;;13.70;99.90;;;;;;6299666;28;20477;-65
2023/05/19 05:02:11;;;;;;;13.93;9.77;;;13.70;99.90;;;;;;6300262;28;20559;-65
2023/05/19 05:05:15;;;;;;;11.77;9.30;;;13.80;99.90;;;;;;6299575;28;20536;-65
2023/05/19 05:08:21;;;;;;;13.93;8.80;;;13.70;99.90;;;;;;6300358;28;20524;-65
2023/05/19 05:11:25;;;;;;;10.60;9.40;;;13.70;99.90;;;;;;6299496;28;20479;-64
2023/05/19 05:14:29;;;;;;;9.97;8.97;;;13.70;99.90;;;;;;6299640;28;20451;-64
2023/05/19 05:17:34;;;;;;;11.00;9.23;;;13.70;99.90;;;;;;6300351;28;20441;-64
2023/05/19 05:20:38;;;;;;;10.77;9.07;;;13.80;99.90;;;;;;6300008;28;20453;-64
2023/05/19 05:23:43;;;;;;;10.53;9.40;;;13.70;99.90;;;;;;6299986;28;20477;-64
2023/05/19 05:26:47;;;;;;;13.00;9.67;;;13.70;99.90;;;;;;6299600;28;20457;-64
2023/05/19 05:29:52;;;;;;;15.50;9.23;;;13.60;99.90;;;;;;6299604;28;20544;-64
2023/05/19 05:32:56;;;;;;;11.13;10.03;;;13.60;99.90;;;;;;6299665;28;20469;-64
2023/05/19 05:35:59;;;;;;;13.43;10.93;;;13.50;99.90;;;;;;6299652;28;20480;-64
2023/05/19 05:39:04;;;;;;;13.00;9.70;;;13.60;99.90;;;;;;6299578;28;20489;-64
2023/05/19 05:42:08;;;;;;;9.83;8.83;;;13.60;99.90;;;;;;6299375;28;20461;-64
2023/05/19 05:45:12;;;;;;;11.53;9.27;;;13.60;99.90;;;;;;6299678;28;20477;-64
2023/05/19 05:48:15;;;;;;;10.17;9.17;;;13.70;99.90;;;;;;6299270;28;20469;-64
2023/05/19 05:51:21;;;;;;;11.63;10.43;;;13.60;99.90;;;;;;6298897;28;20513;-65
2023/05/19 05:54:27;;;;;;;15.00;10.23;;;13.70;99.90;;;;;;6299428;28;20914;-63
2023/05/19 05:57:30;;;;;;;14.37;11.33;;;13.70;99.90;;;;;;6299341;28;20567;-64
2023/05/19 06:00:33;;;;;;;11.13;10.17;;;13.60;99.90;;;;;;6299100;28;20481;-64
2023/05/19 06:03:38;;;;;;;14.50;10.57;;;13.60;99.90;;;;;;6299254;28;20959;-65
2023/05/19 06:06:42;;;;;;;13.30;9.97;;;13.80;99.90;;;;;;6299279;28;20564;-64
2023/05/19 06:09:46;;;;;;;14.80;11.17;;;13.90;99.90;;;;;;6298695;28;20477;-64
2023/05/19 06:12:49;;;;;;;11.40;8.30;;;14.10;99.90;;;;;;6299015;28;20476;-64
2023/05/19 06:15:53;;;;;;;10.90;8.33;;;14.20;99.90;;;;;;6298802;28;20465;-65
2023/05/19 06:18:57;;;;;;;9.27;8.43;;;14.40;99.90;;;;;;6298408;28;20917;-65
2023/05/19 06:22:00;;;;;;;12.63;9.70;;;14.50;99.90;;;;;;6298870;28;20562;-64
2023/05/19 06:25:07;;;;;;;12.67;8.97;;;14.50;99.90;;;;;;6298859;28;20753;-64
2023/05/19 06:28:11;;;;;;;10.80;8.67;;;14.50;99.90;;;;;;6305378;28;20488;-64
2023/05/19 06:31:15;;;;;;;10.83;8.40;;;14.60;99.90;;;;;;6308378;28;20569;-64
2023/05/19 06:34:19;;;;;;;12.00;9.40;;;14.70;99.90;;;;;;6304064;28;20572;-65
2023/05/19 06:37:23;;;;;;;10.53;9.43;;;14.70;99.90;;;;;;6303471;28;20527;-65
2023/05/19 06:40:28;;;;;;;9.47;8.47;;;14.80;99.90;;;;;;6303361;28;20472;-65
2023/05/19 06:43:31;;;;;;;13.83;9.90;;;14.70;99.90;;;;;;6302966;28;20476;-64
2023/05/19 06:46:34;;;;;;;10.20;8.20;;;14.80;99.90;;;;;;6303348;28;20523;-65
2023/05/19 06:49:38;;;;;;;10.53;8.57;;;14.80;99.90;;;;;;6303210;28;20534;-65
2023/05/19 06:52:41;;;;;;;14.87;9.80;;;14.90;99.90;;;;;;6303057;28;20496;-65
2023/05/19 06:55:48;;;;;;;10.27;9.23;;;15.10;99.50;;;;;;6302771;28;20464;-64
2023/05/19 06:59:01;;;;;;;10.63;9.17;;;15.20;99.20;;;;;;6302994;28;20474;-65
2023/05/19 07:02:04;;;;;;;11.63;8.80;;;15.50;99.00;;;;;;6302287;28;20477;-64
2023/05/19 07:05:08;;;;;;;10.37;7.50;;;15.60;98.10;;;;;;6302825;28;20469;-63
2023/05/19 07:08:11;;;;;;;9.30;8.23;;;15.70;97.20;;;;;;6302775;28;20544;-64
2023/05/19 07:11:16;;;;;;;12.40;8.00;;;15.80;97.30;;;;;;6302034;28;20473;-66
2023/05/19 07:14:19;;;;;;;11.83;9.13;;;15.90;97.30;;;;;;6302368;28;20442;-65
2023/05/19 07:17:22;;;;;;;9.90;8.67;;;16.00;97.20;;;;;;6303144;28;20548;-65
2023/05/19 07:20:26;;;;;;;13.53;9.07;;;16.10;96.80;;;;;;6302728;28;20519;-63
2023/05/19 07:23:29;;;;;;;9.60;7.93;;;16.20;96.60;;;;;;6302343;28;20448;-63
2023/05/19 07:26:34;;;;;;;9.37;8.40;;;16.30;96.50;;;;;;6304038;28;20437;-64
2023/05/19 07:29:37;;;;;;;13.93;10.47;;;16.50;96.60;;;;;;6303124;28;20793;-64
2023/05/19 07:32:40;;;;;;;10.00;8.93;;;16.80;96.20;;;;;;6304325;28;20457;-64
2023/05/19 07:35:44;;;;;;;10.83;9.73;;;17.00;95.60;;;;;;6302433;28;20473;-64
2023/05/19 07:38:47;;;;;;;12.40;9.30;;;17.10;95.60;;;;;;6301919;28;20476;-65
2023/05/19 07:41:54;;;;;;;14.70;11.13;;;17.30;95.30;;;;;;6301722;28;20964;-64
2023/05/19 07:44:57;;;;;;;9.60;8.63;;;17.80;95.00;;;;;;6300714;28;20469;-67
2023/05/19 07:48:00;;;;;;;8.60;7.80;;;18.80;94.40;;;;;;6302823;28;20479;-68
2023/05/19 07:51:04;;;;;;;10.97;9.87;;;19.80;95.80;;;;;;6301291;28;20219;-66
2023/05/19 07:54:07;;;;;;;13.20;10.13;;;20.90;92.40;;;;;;6301767;28;20230;-67
2023/05/19 07:57:13;;;;;;;12.40;9.70;;;21.70;91.00;;;;;;6301415;28;20233;-67
2023/05/19 08:00:17;;;;;;;13.87;12.47;;;22.00;88.10;;;;;;6301422;28;20230;-66
2023/05/19 08:03:22;;;;;;;11.83;10.73;;;22.00;84.50;;;;;;6301437;28;20235;-67
2023/05/19 08:06:25;;;;;;;10.73;9.40;;;21.70;84.00;;;;;;6301097;28;20241;-64
2023/05/19 08:09:28;;;;;;;14.07;10.00;;;21.80;83.60;;;;;;6301679;28;20694;-64
2023/05/19 08:12:33;;;;;;;12.63;9.33;;;22.00;82.50;;;;;;6301222;28;20231;-66
2023/05/19 08:15:36;;;;;;;10.43;9.40;;;22.30;84.40;;;;;;6291268;28;20639;-66
2023/05/19 08:18:40;;;;;;;10.77;9.67;;;22.40;83.10;;;;;;6296093;28;20230;-66
2023/05/19 08:21:43;;;;;;;10.83;9.73;;;22.70;81.90;;;;;;6299783;28;20309;-67
2023/05/19 08:24:48;;;;;;;9.83;8.93;;;22.80;78.50;;;;;;6300468;28;20226;-69
2023/05/19 08:27:53;;;;;;;10.40;8.23;;;22.60;77.20;;;;;;6295622;28;20677;-67
2023/05/19 08:30:56;;;;;;;10.93;9.90;;;22.40;77.00;;;;;;6299695;28;20226;-66
2023/05/19 08:33:59;;;;;;;13.27;10.20;;;21.80;77.00;;;;;;6300629;28;20269;-65
2023/05/19 08:37:02;;;;;;;11.57;10.57;;;21.30;78.30;;;;;;6300435;28;20223;-68
2023/05/19 08:40:07;;;;;;;11.27;10.17;;;20.70;80.20;;;;;;6300404;28;20317;-67
2023/05/19 08:43:12;;;;;;;13.63;10.07;;;20.40;81.60;;;;;;6300033;28;20237;-68
2023/05/19 08:46:17;;;;;;;12.60;11.50;;;20.10;82.80;;;;;;6299325;28;20226;-67
2023/05/19 08:49:26;;;;;;;11.73;10.60;;;19.80;83.60;;;;;;6299236;28;20682;-67
2023/05/19 08:52:41;;;;;;;12.63;11.10;;;19.30;85.20;;;;;;6300005;28;20215;-69
2023/05/19 08:55:49;;;;;;;10.93;9.80;;;19.20;86.10;;;;;;6313823;28;20291;-69
2023/05/19 08:58:55;;;;;;;14.03;11.57;;;19.00;86.90;;;;;;6310537;28;20227;-70
2023/05/19 09:01:59;;;;;;;12.20;10.10;;;18.60;88.90;;;;;;6306334;28;20315;-70
2023/05/19 09:05:03;;;;;;;10.03;9.00;;;18.50;89.60;;;;;;6300309;28;20227;-69
2023/05/19 09:08:06;;;;;;;13.90;10.87;;;18.80;89.70;;;;;;6300160;28;20245;-68
2023/05/19 09:11:10;;;;;;;11.47;9.90;;;19.50;87.60;;;;;;6299557;28;20242;-69
2023/05/19 09:14:15;;;;;;;9.90;9.00;;;20.10;86.40;;;;;;6299498;28;20288;-70
2023/05/19 09:17:18;;;;;;;12.53;10.07;;;20.80;84.40;;;;;;6299844;28;20223;-70
2023/05/19 09:20:22;;;;;;;10.80;9.80;;;20.80;82.20;;;;;;6299137;28;20344;-71
2023/05/19 09:23:27;;;;;;;10.37;9.40;;;20.80;82.60;;;;;;6300071;28;20230;-69
2023/05/19 09:26:37;;;;;;;13.20;11.30;;;20.80;83.00;;;;;;6298784;28;20468;-70
2023/05/19 09:29:42;;;;;;;11.43;10.43;;;20.10;82.90;;;;;;6295252;28;20657;-70
2023/05/19 09:32:46;;;;;;;10.70;9.70;;;19.60;84.70;;;;;;6299405;28;20223;-70
2023/05/19 09:35:53;;;;;;;10.03;8.90;;;19.50;86.00;;;;;;6299605;28;20237;-71
2023/05/19 09:38:56;;;;;;;12.10;10.37;;;19.60;86.70;;;;;;6299579;28;20223;-74
2023/05/19 09:42:05;;;;;;;10.07;9.07;;;19.70;85.80;;;;;;6297332;28;20283;-68
2023/05/19 09:45:10;;;;;;;12.00;10.07;;;20.10;85.30;;;;;;6293376;28;20678;-68
2023/05/19 09:48:14;;;;;;;10.33;9.30;;;20.10;84.30;;;;;;6298329;28;20375;-67
2023/05/19 09:51:20;;;;;;;10.00;9.00;;;19.60;85.60;;;;;;6289594;28;20237;-69
2023/05/19 09:54:26;;;;;;;12.03;10.00;;;19.70;86.20;;;;;;6298708;28;20230;-68
2023/05/19 09:57:34;;;;;;;12.57;9.30;;;20.10;85.30;;;;;;6299068;28;20249;-69
2023/05/19 10:00:39;;;;;;;10.77;9.60;;;20.40;84.20;;;;;;6300174;28;20231;-70
2023/05/19 10:03:44;;;;;;;12.93;9.13;;;20.40;83.70;;;;;;6304350;28;20689;-69
2023/05/19 10:06:52;;;;;;;10.23;9.23;;;20.70;83.20;;;;;;6303637;28;20246;-67
2023/05/19 10:09:56;;;;;;;11.70;9.50;;;21.00;81.60;;;;;;6303631;28;20243;-67
2023/05/19 10:13:02;;;;;;;10.60;9.60;;;21.00;82.00;;;;;;6303717;28;20227;-67
2023/05/19 10:16:09;;;;;;;13.80;9.50;;;21.10;80.70;;;;;;6303441;28;20780;-67
2023/05/19 10:19:13;;;;;;;10.67;9.43;;;21.00;80.80;;;;;;6303295;28;20245;-66
2023/05/19 10:22:17;;;;;;;8.57;7.90;;;20.70;81.40;;;;;;6303291;28;20234;-66
2023/05/19 10:25:20;;;;;;;9.73;8.73;;;20.80;83.00;;;;;;6303162;28;20230;-67
2023/05/19 10:28:27;;;;;;;10.60;8.20;;;20.70;82.00;;;;;;6303245;28;20227;-66
2023/05/19 10:31:33;;;;;;;10.20;9.30;;;21.10;82.20;;;;;;6302927;28;20230;-66
2023/05/19 10:35:06;;;;;;;8.63;7.87;;;21.60;81.00;;;;;;6299042;28;20269;-66
2023/05/19 10:38:19;;;;;;;9.17;8.13;;;22.10;79.40;;;;;;6302581;28;20235;-66
2023/05/19 10:41:29;;;;;;;8.70;8.00;;;22.50;77.50;;;;;;6302646;28;20245;-66
2023/05/19 10:44:43;;;;;;;9.03;6.80;;;22.50;76.80;;;;;;6302923;28;20623;-72
2023/05/19 10:47:51;;;;;;;6.90;6.30;;;22.40;76.20;;;;;;6304684;28;20223;-71
2023/05/19 10:50:56;;;;;;;5.47;4.97;;;22.00;76.60;;;;;;6303494;28;20223;-70
2023/05/19 10:54:01;;;;;;;7.97;6.37;;;21.30;78.60;;;;;;6302962;28;20355;-69
2023/05/19 10:57:05;;;;;;;6.53;5.83;;;21.20;78.70;;;;;;6303355;28;20309;-70
2023/05/19 11:00:28;;;;;;;5.63;4.70;;;21.20;78.50;;;;;;6302459;28;20241;-70
2023/05/19 11:03:44;;;;;;;5.00;3.97;;;21.30;78.80;;;;;;6304127;28;20251;-68
2023/05/19 11:06:52;;;;;;;7.00;5.27;;;21.20;78.20;;;;;;6303065;28;20235;-67
2023/05/19 11:09:55;;;;;;;5.97;4.80;;;21.10;78.80;;;;;;6302909;28;20263;-68
2023/05/19 11:12:59;;;;;;;6.60;6.00;;;21.00;79.40;;;;;;6302443;28;20545;-68
2023/05/19 11:16:08;;;;;;;4.90;4.50;;;21.20;79.40;;;;;;6302235;28;20268;-69
2023/05/19 11:19:18;;;;;;;4.87;4.47;;;21.40;77.70;;;;;;6302463;28;20554;-68
2023/05/19 11:22:24;;;;;;;5.47;4.47;;;21.80;76.90;;;;;;6302006;28;20219;-70
2023/05/19 11:25:42;;;;;;;5.20;4.70;;;22.10;76.40;;;;;;6277512;28;20766;-70
2023/05/19 11:28:47;;;;;;;5.77;5.10;;;22.60;76.00;;;;;;6276321;28;20293;-70
2023/05/19 11:31:52;;;;;;;6.70;4.83;;;22.80;74.00;;;;;;6296382;28;20223;-70
2023/05/19 11:34:57;;;;;;;5.37;4.87;;;22.70;73.70;;;;;;6300945;28;20239;-69
2023/05/19 11:38:01;;;;;;;5.30;4.80;;;22.10;74.00;;;;;;6301443;28;20864;-69
2023/05/19 11:41:05;;;;;;;6.80;5.40;;;21.90;74.60;;;;;;6301853;28;20245;-68
2023/05/19 11:44:11;;;;;;;6.00;5.07;;;22.00;74.30;;;;;;6300917;28;20317;-68
2023/05/19 11:47:15;;;;;;;5.03;4.40;;;22.20;74.30;;;;;;6300954;28;20237;-69
2023/05/19 11:50:20;;;;;;;4.80;4.40;;;22.50;73.70;;;;;;6301042;28;20326;-69
2023/05/19 11:53:23;;;;;;;4.20;3.80;;;22.70;73.60;;;;;;6305211;28;20603;-69
2023/05/19 11:56:26;;;;;;;5.17;4.67;;;23.00;73.10;;;;;;6305636;28;20203;-70
2023/05/19 11:59:31;;;;;;;5.50;4.70;;;23.10;71.70;;;;;;6300988;28;20225;-69
2023/05/19 12:02:37;;;;;;;4.80;4.00;;;23.20;70.70;;;;;;6301354;28;20223;-69
2023/05/19 12:05:45;;;;;;;8.00;4.70;;;23.20;70.50;;;;;;6301417;28;20230;-68
2023/05/19 12:08:51;;;;;;;5.90;5.07;;;23.30;70.80;;;;;;6300466;28;20230;-68
2023/05/19 12:11:55;;;;;;;5.50;5.10;;;23.00;71.20;;;;;;6301156;28;20223;-69
2023/05/19 12:14:58;;;;;;;5.47;4.93;;;22.60;71.60;;;;;;6301018;28;20227;-68
2023/05/19 12:18:02;;;;;;;5.20;4.80;;;22.70;70.70;;;;;;6300824;28;20554;-68
2023/05/19 12:21:07;;;;;;;4.97;4.50;;;23.00;70.40;;;;;;6301407;28;20235;-68
2023/05/19 12:24:10;;;;;;;7.47;4.70;;;22.80;70.20;;;;;;6299898;28;20239;-68
2023/05/19 12:27:19;;;;;;;5.70;5.20;;;22.50;71.30;;;;;;6300932;28;20227;-68
2023/05/19 12:30:26;;;;;;;5.43;4.70;;;22.10;73.00;;;;;;6300594;28;20269;-69
2023/05/19 12:33:32;;;;;;;5.07;4.60;;;22.10;72.80;;;;;;6301370;28;20237;-68
2023/05/19 12:36:40;;;;;;;5.77;5.03;;;22.30;72.50;;;;;;6301353;28;20233;-69
2023/05/19 12:39:44;;;;;;;5.83;5.33;;;22.40;72.60;;;;;;6300162;28;20577;-68
2023/05/19 12:42:50;;;;;;;5.43;4.97;;;22.50;72.80;;;;;;6296945;28;20237;-68
2023/05/19 12:45:54;;;;;;;5.60;4.80;;;22.30;73.30;;;;;;6300760;28;20552;-69
2023/05/19 12:49:00;;;;;;;5.80;5.23;;;22.40;72.60;;;;;;6300188;28;20254;-69
2023/05/19 12:52:08;;;;;;;5.23;4.77;;;21.90;73.80;;;;;;6300222;28;20223;-69
2023/05/19 12:55:16;;;;;;;5.60;4.80;;;21.30;75.20;;;;;;6300661;28;20333;-69
2023/05/19 12:58:20;;;;;;;5.30;4.80;;;21.30;75.30;;;;;;6300429;28;20992;-68
2023/05/19 13:01:24;;;;;;;6.07;5.43;;;21.50;75.40;;;;;;6300674;28;20689;-68
2023/05/19 13:04:29;;;;;;;5.87;5.37;;;21.10;77.10;;;;;;6300981;28;20238;-68
2023/05/19 13:07:34;;;;;;;7.77;5.10;;;21.00;76.10;;;;;;6300795;28;20354;-68
2023/05/19 13:10:39;;;;;;;6.23;5.50;;;21.30;76.60;;;;;;6297340;28;20242;-69
2023/05/19 13:13:42;;;;;;;6.23;4.27;;;21.50;74.70;;;;;;6298584;28;20229;-69
2023/05/19 13:16:46;;;;;;;6.10;4.90;;;21.90;74.60;;;;;;6297978;28;20230;-69
2023/05/19 13:19:49;;;;;;;4.77;4.37;;;22.20;73.30;;;;;;6297967;28;20659;-69
2023/05/19 13:22:54;;;;;;;5.87;5.07;;;22.40;73.10;;;;;;6299031;28;20223;-69
2023/05/19 13:25:58;;;;;;;6.80;4.33;;;22.70;72.40;;;;;;6299753;28;20222;-69
2023/05/19 13:29:01;;;;;;;5.00;4.60;;;23.00;72.10;;;;;;6299580;28;20231;-69
2023/05/19 13:32:05;;;;;;;5.67;5.17;;;23.10;71.30;;;;;;6299973;28;20556;-69
2023/05/19 13:35:09;;;;;;;7.80;5.73;;;22.70;71.90;;;;;;6299015;28;20223;-69
2023/05/19 13:38:14;;;;;;;4.57;4.17;;;22.70;71.20;;;;;;6299360;28;20231;-69
2023/05/19 13:41:17;;;;;;;5.43;4.73;;;22.90;71.60;;;;;;6298817;28;20227;-69
2023/05/19 13:44:20;;;;;;;6.00;5.50;;;22.90;71.70;;;;;;6298633;28;20231;-69
2023/05/19 13:47:24;;;;;;;4.73;4.33;;;22.30;72.30;;;;;;6299603;28;20219;-69
2023/05/19 13:50:27;;;;;;;10.03;9.03;;;22.30;73.60;;;;;;6299117;28;20241;-69
2023/05/19 13:53:33;;;;;;;5.97;5.23;;;22.50;74.30;;;;;;6299274;28;20643;-69
2023/05/19 13:56:36;;;;;;;5.10;4.67;;;22.60;72.40;;;;;;6299151;28;20282;-69
2023/05/19 13:59:41;;;;;;;5.93;5.40;;;22.60;72.50;;;;;;6299474;28;20581;-69
2023/05/19 14:03:03;;;;;;;6.70;4.90;;;22.60;72.50;;;;;;6299204;28;20227;-69
2023/05/19 14:06:07;;;;;;;5.37;4.87;;;22.70;72.50;;;;;;6300481;28;20238;-69
2023/05/19 14:09:12;;;;;;;5.37;4.87;;;22.70;72.20;;;;;;6299652;28;20245;-69
2023/05/19 14:12:15;;;;;;;5.27;4.77;;;22.60;72.30;;;;;;6299283;28;20244;-69
2023/05/19 14:15:18;;;;;;;4.30;3.90;;;22.60;72.10;;;;;;6298833;28;20686;-69
2023/05/19 14:18:22;;;;;;;4.43;4.13;;;22.50;71.80;;;;;;6298924;28;20288;-69
2023/05/19 14:21:25;;;;;;;8.23;4.87;;;22.60;71.30;;;;;;6298727;28;20253;-69
2023/05/19 14:24:30;;;;;;;10.80;4.70;;;22.70;71.60;;;;;;6299025;28;20222;-69
2023/05/19 14:27:33;;;;;;;5.53;4.37;;;22.80;71.60;;;;;;6299228;28;20368;-69
2023/05/19 14:30:36;;;;;;;7.70;5.00;;;22.40;72.40;;;;;;6299100;28;20684;-69
2023/05/19 14:33:40;;;;;;;5.83;4.90;;;21.90;73.80;;;;;;6305757;28;20226;-70
2023/05/19 14:36:44;;;;;;;7.97;5.23;;;21.50;75.20;;;;;;6310729;28;20251;-70
2023/05/19 14:39:49;;;;;;;5.30;4.90;;;21.20;76.40;;;;;;6299535;28;20231;-70
2023/05/19 14:42:52;;;;;;;4.87;4.47;;;20.80;78.40;;;;;;6298902;28;20301;-70
2023/05/19 14:45:56;;;;;;;7.53;5.13;;;20.60;79.30;;;;;;6298634;28;20273;-70
2023/05/19 14:48:59;;;;;;;4.93;4.53;;;20.30;80.80;;;;;;6307408;28;20230;-70
2023/05/19 14:52:02;;;;;;;4.73;4.33;;;20.20;81.00;;;;;;6294268;28;20238;-70
2023/05/19 14:55:08;;;;;;;5.20;4.73;;;20.20;81.40;;;;;;6303196;28;20227;-70
2023/05/19 14:58:13;;;;;;;4.50;4.10;;;20.30;81.40;;;;;;6301929;28;20254;-70
2023/05/19 15:01:30;;;;;;;5.03;4.53;;;20.40;81.40;;;;;;6302261;28;20243;-70
2023/05/19 15:04:34;;;;;;;6.70;4.50;;;20.50;80.90;;;;;;6303120;28;20308;-70
2023/05/19 15:07:37;;;;;;;7.47;4.47;;;20.50;81.40;;;;;;6303234;28;20279;-70
2023/05/19 15:10:41;;;;;;;4.67;4.37;;;20.30;80.80;;;;;;6302750;28;20297;-70
2023/05/19 15:13:45;;;;;;;4.50;4.20;;;20.30;81.10;;;;;;6303082;28;20241;-70
2023/05/19 15:16:48;;;;;;;5.73;4.37;;;20.40;81.20;;;;;;6302764;28;20250;-69
2023/05/19 15:19:51;;;;;;;5.20;4.17;;;20.50;81.00;;;;;;6303945;28;20696;-70
2023/05/19 15:22:55;;;;;;;4.20;3.80;;;20.60;81.10;;;;;;6303538;28;20242;-70
2023/05/19 15:26:01;;;;;;;4.93;4.00;;;20.70;80.70;;;;;;6302447;28;20659;-68
2023/05/19 15:29:04;;;;;;;7.37;4.70;;;20.60;80.40;;;;;;6301775;28;20244;-69
2023/05/19 15:32:08;;;;;;;5.77;4.43;;;20.70;80.60;;;;;;6300971;28;20222;-69
2023/05/19 15:35:11;;;;;;;5.43;4.93;;;20.60;80.70;;;;;;6301704;28;20236;-69
2023/05/19 15:38:15;;;;;;;5.33;4.47;;;20.50;81.50;;;;;;6301106;28;20310;-69
2023/05/19 15:41:20;;;;;;;5.03;4.63;;;20.30;81.80;;;;;;6301795;28;20231;-69
2023/05/19 15:44:23;;;;;;;5.10;4.60;;;20.40;82.00;;;;;;6301958;28;20318;-69
2023/05/19 15:47:27;;;;;;;5.53;4.37;;;20.50;82.00;;;;;;6301876;28;20209;-69
2023/05/19 15:50:31;;;;;;;4.63;4.23;;;20.50;82.30;;;;;;6302060;28;20276;-69
2023/05/19 15:53:35;;;;;;;4.40;3.97;;;20.40;82.00;;;;;;6293340;28;20210;-69
2023/05/19 15:56:39;;;;;;;4.40;4.03;;;20.30;82.60;;;;;;6301903;28;20207;-68